SVA1429 OEMA-OEJN
Flight info
| Callsign | SVA1429 |
|---|---|
| Flight time | 0h 41m |
| Altitude | 24000 |
| Route | SISUD B544 NOMDA |
| Aircraft | A320/M-SDE3FGHIRWY/LB1 |
Departure
| Time | 2026-04-29 15:31 |
|---|---|
| Airport | Prince Mohammad Bin Abdulaziz Airport (OEMA) |
Arrival
| Time | 2026-04-29 16:12 |
|---|---|
| Airport | King Abdulaziz International Airport (OEJN) |
| Time | Latitude | Longitude | Altitude | Speed | Heading |
|---|---|---|---|---|---|
| 2026-04-29 15:25 | 24.56258 | 39.70817 | 2108 ft | 6 kts | 349° |
| 2026-04-29 15:25 | 24.56312 | 39.70806 | 2108 ft | 14 kts | 349° |
| 2026-04-29 15:25 | 24.56406 | 39.70786 | 2108 ft | 13 kts | 349° |
| 2026-04-29 15:26 | 24.56492 | 39.70769 | 2110 ft | 12 kts | 350° |
| 2026-04-29 15:26 | 24.56583 | 39.70753 | 2107 ft | 14 kts | 351° |
| 2026-04-29 15:26 | 24.56678 | 39.70734 | 2107 ft | 13 kts | 347° |
| 2026-04-29 15:26 | 24.56763 | 39.70711 | 2107 ft | 12 kts | 346° |
| 2026-04-29 15:27 | 24.56842 | 39.70691 | 2107 ft | 11 kts | 350° |
| 2026-04-29 15:27 | 24.56916 | 39.70676 | 2106 ft | 10 kts | 349° |
| 2026-04-29 15:27 | 24.56984 | 39.70662 | 2106 ft | 10 kts | 348° |
| 2026-04-29 15:27 | 24.57060 | 39.70645 | 2106 ft | 11 kts | 349° |
| 2026-04-29 15:28 | 24.57132 | 39.70630 | 2106 ft | 10 kts | 349° |
| 2026-04-29 15:28 | 24.57178 | 39.70621 | 2106 ft | 10 kts | 349° |
| 2026-04-29 15:28 | 24.57291 | 39.70599 | 2106 ft | 17 kts | 349° |
| 2026-04-29 15:28 | 24.57399 | 39.70577 | 2106 ft | 15 kts | 349° |
| 2026-04-29 15:29 | 24.57496 | 39.70557 | 2107 ft | 13 kts | 349° |
| 2026-04-29 15:29 | 24.57558 | 39.70435 | 2110 ft | 9 kts | 258° |
| 2026-04-29 15:30 | 24.57443 | 39.70375 | 2110 ft | 26 kts | 169° |
| 2026-04-29 15:30 | 24.56994 | 39.70473 | 2113 ft | 102 kts | 169° |
| 2026-04-29 15:30 | 24.56112 | 39.70659 | 2114 ft | 157 kts | 169° |
| 2026-04-29 15:30 | 24.54924 | 39.70926 | 2428 ft | 178 kts | 170° |
| 2026-04-29 15:31 | 24.53739 | 39.71188 | 3333 ft | 171 kts | 173° |
| 2026-04-29 15:31 | 24.52555 | 39.71446 | 3929 ft | 180 kts | 171° |
| 2026-04-29 15:31 | 24.51273 | 39.71754 | 4257 ft | 199 kts | 172° |
| 2026-04-29 15:31 | 24.49830 | 39.72046 | 4546 ft | 222 kts | 173° |
| 2026-04-29 15:32 | 24.48226 | 39.72362 | 4912 ft | 247 kts | 173° |
| 2026-04-29 15:32 | 24.46451 | 39.72715 | 5399 ft | 269 kts | 172° |
| 2026-04-29 15:32 | 24.44598 | 39.73092 | 6174 ft | 279 kts | 172° |
| 2026-04-29 15:32 | 24.42675 | 39.73489 | 7007 ft | 284 kts | 172° |
| 2026-04-29 15:33 | 24.40713 | 39.73898 | 7691 ft | 289 kts | 172° |
| 2026-04-29 15:33 | 24.38728 | 39.74313 | 8443 ft | 291 kts | 172° |
| 2026-04-29 15:33 | 24.36734 | 39.74733 | 9422 ft | 293 kts | 172° |
| 2026-04-29 15:33 | 24.34708 | 39.74946 | 10249 ft | 296 kts | 184° |
| 2026-04-29 15:34 | 24.32612 | 39.74582 | 10579 ft | 316 kts | 200° |
| 2026-04-29 15:34 | 24.30566 | 39.73557 | 10996 ft | 330 kts | 210° |
| 2026-04-29 15:34 | 24.28512 | 39.72376 | 11721 ft | 336 kts | 210° |
| 2026-04-29 15:34 | 24.26448 | 39.71211 | 12520 ft | 340 kts | 210° |
| 2026-04-29 15:35 | 24.24327 | 39.70025 | 13298 ft | 344 kts | 210° |
| 2026-04-29 15:35 | 24.22178 | 39.68830 | 14038 ft | 348 kts | 210° |
| 2026-04-29 15:35 | 24.20003 | 39.67623 | 14725 ft | 352 kts | 210° |
| 2026-04-29 15:35 | 24.17809 | 39.66409 | 15409 ft | 356 kts | 210° |
| 2026-04-29 15:36 | 24.15581 | 39.65177 | 16091 ft | 360 kts | 211° |
| 2026-04-29 15:36 | 24.13338 | 39.63933 | 16757 ft | 364 kts | 211° |
| 2026-04-29 15:36 | 24.11067 | 39.62671 | 17430 ft | 368 kts | 211° |
| 2026-04-29 15:36 | 24.08773 | 39.61392 | 18088 ft | 372 kts | 212° |
| 2026-04-29 15:37 | 24.06485 | 39.60117 | 18621 ft | 376 kts | 212° |
| 2026-04-29 15:37 | 24.04140 | 39.58812 | 19153 ft | 380 kts | 212° |
| 2026-04-29 15:37 | 24.01769 | 39.57491 | 19699 ft | 384 kts | 212° |
| 2026-04-29 15:37 | 23.99379 | 39.56158 | 20275 ft | 387 kts | 212° |
| 2026-04-29 15:38 | 23.96976 | 39.54817 | 20833 ft | 390 kts | 213° |
| 2026-04-29 15:38 | 23.94548 | 39.53466 | 21393 ft | 393 kts | 213° |
| 2026-04-29 15:38 | 23.92092 | 39.52104 | 21919 ft | 397 kts | 213° |
| 2026-04-29 15:38 | 23.89624 | 39.50739 | 22434 ft | 400 kts | 213° |
| 2026-04-29 15:39 | 23.87130 | 39.49358 | 22959 ft | 403 kts | 213° |
| 2026-04-29 15:39 | 23.84618 | 39.47966 | 23444 ft | 407 kts | 214° |
| 2026-04-29 15:39 | 23.82121 | 39.46580 | 23820 ft | 409 kts | 213° |
| 2026-04-29 15:39 | 23.79583 | 39.45175 | 23927 ft | 408 kts | 213° |
| 2026-04-29 15:40 | 23.77058 | 39.43783 | 23960 ft | 405 kts | 213° |
| 2026-04-29 15:40 | 23.74483 | 39.42506 | 23960 ft | 410 kts | 206° |
| 2026-04-29 15:40 | 23.71763 | 39.41552 | 23962 ft | 411 kts | 205° |
| 2026-04-29 15:40 | 23.69034 | 39.40614 | 23956 ft | 411 kts | 205° |
| 2026-04-29 15:41 | 23.66311 | 39.39676 | 23953 ft | 411 kts | 205° |
| 2026-04-29 15:41 | 23.63576 | 39.38732 | 23942 ft | 412 kts | 204° |
| 2026-04-29 15:41 | 23.60844 | 39.37785 | 23953 ft | 413 kts | 204° |
| 2026-04-29 15:41 | 23.58138 | 39.36847 | 23950 ft | 413 kts | 204° |
| 2026-04-29 15:42 | 23.55398 | 39.35898 | 23951 ft | 413 kts | 204° |
| 2026-04-29 15:42 | 23.52659 | 39.34951 | 23953 ft | 413 kts | 204° |
| 2026-04-29 15:42 | 23.49922 | 39.34005 | 23946 ft | 413 kts | 204° |
| 2026-04-29 15:42 | 23.47190 | 39.33061 | 23945 ft | 413 kts | 204° |
| 2026-04-29 15:43 | 23.44451 | 39.32118 | 23945 ft | 413 kts | 204° |
| 2026-04-29 15:43 | 23.41706 | 39.31176 | 23921 ft | 413 kts | 204° |
| 2026-04-29 15:43 | 23.38973 | 39.30235 | 23922 ft | 413 kts | 204° |
| 2026-04-29 15:43 | 23.36233 | 39.29290 | 23923 ft | 413 kts | 204° |
| 2026-04-29 15:44 | 23.33531 | 39.28354 | 23924 ft | 413 kts | 204° |
| 2026-04-29 15:44 | 23.30792 | 39.27408 | 23917 ft | 413 kts | 204° |
| 2026-04-29 15:44 | 23.28054 | 39.26466 | 23919 ft | 413 kts | 204° |
| 2026-04-29 15:44 | 23.25312 | 39.25526 | 23920 ft | 413 kts | 204° |
| 2026-04-29 15:45 | 23.22569 | 39.24587 | 23911 ft | 413 kts | 204° |
| 2026-04-29 15:45 | 23.19826 | 39.23650 | 23893 ft | 413 kts | 204° |
| 2026-04-29 15:45 | 23.17084 | 39.22709 | 23896 ft | 413 kts | 203° |
| 2026-04-29 15:45 | 23.14341 | 39.21765 | 23897 ft | 413 kts | 203° |
| 2026-04-29 15:46 | 23.11634 | 39.20833 | 23898 ft | 413 kts | 203° |
| 2026-04-29 15:46 | 23.08891 | 39.19889 | 23901 ft | 413 kts | 203° |
| 2026-04-29 15:46 | 23.06148 | 39.18945 | 23901 ft | 413 kts | 203° |
| 2026-04-29 15:46 | 23.03406 | 39.18003 | 23903 ft | 414 kts | 203° |
| 2026-04-29 15:47 | 23.00659 | 39.17066 | 23904 ft | 414 kts | 203° |
| 2026-04-29 15:47 | 22.97916 | 39.16131 | 23905 ft | 413 kts | 203° |
| 2026-04-29 15:47 | 22.95170 | 39.15192 | 23890 ft | 413 kts | 202° |
| 2026-04-29 15:47 | 22.92431 | 39.14254 | 23899 ft | 413 kts | 203° |
| 2026-04-29 15:48 | 22.89693 | 39.13313 | 23914 ft | 413 kts | 203° |
| 2026-04-29 15:48 | 22.86996 | 39.12387 | 23908 ft | 412 kts | 203° |
| 2026-04-29 15:48 | 22.84261 | 39.11450 | 23917 ft | 412 kts | 203° |
| 2026-04-29 15:48 | 22.81528 | 39.10520 | 23917 ft | 412 kts | 202° |
| 2026-04-29 15:49 | 22.78705 | 39.09878 | 23917 ft | 418 kts | 192° |
| 2026-04-29 15:49 | 22.75776 | 39.09780 | 23908 ft | 423 kts | 184° |
| 2026-04-29 15:49 | 22.72831 | 39.09858 | 23894 ft | 423 kts | 183° |
| 2026-04-29 15:49 | 22.69885 | 39.09941 | 23906 ft | 423 kts | 183° |
| 2026-04-29 15:50 | 22.66940 | 39.10035 | 23903 ft | 423 kts | 183° |
| 2026-04-29 15:50 | 22.63997 | 39.10135 | 23900 ft | 423 kts | 183° |
| 2026-04-29 15:50 | 22.61094 | 39.10237 | 23896 ft | 423 kts | 183° |
| 2026-04-29 15:50 | 22.58148 | 39.10338 | 23895 ft | 424 kts | 183° |
| 2026-04-29 15:51 | 22.55200 | 39.10440 | 23878 ft | 424 kts | 183° |
| 2026-04-29 15:51 | 22.52250 | 39.10538 | 23877 ft | 424 kts | 183° |
| 2026-04-29 15:51 | 22.49296 | 39.10621 | 23877 ft | 424 kts | 184° |
| 2026-04-29 15:51 | 22.46345 | 39.10659 | 23864 ft | 424 kts | 184° |
| 2026-04-29 15:52 | 22.43396 | 39.10666 | 23877 ft | 424 kts | 185° |
| 2026-04-29 15:52 | 22.40460 | 39.10659 | 23871 ft | 417 kts | 185° |
| 2026-04-29 15:52 | 22.37654 | 39.10658 | 23793 ft | 401 kts | 185° |
| 2026-04-29 15:52 | 22.34919 | 39.10666 | 23678 ft | 386 kts | 185° |
| 2026-04-29 15:53 | 22.32260 | 39.10680 | 23385 ft | 378 kts | 185° |
| 2026-04-29 15:53 | 22.29644 | 39.10693 | 22934 ft | 375 kts | 185° |
| 2026-04-29 15:53 | 22.27049 | 39.10703 | 22460 ft | 372 kts | 185° |
| 2026-04-29 15:53 | 22.24467 | 39.10712 | 21990 ft | 370 kts | 185° |
| 2026-04-29 15:54 | 22.21898 | 39.10719 | 21538 ft | 368 kts | 185° |
| 2026-04-29 15:54 | 22.19341 | 39.10729 | 21086 ft | 367 kts | 185° |
| 2026-04-29 15:54 | 22.16795 | 39.10742 | 20643 ft | 365 kts | 185° |
| 2026-04-29 15:54 | 22.14296 | 39.10756 | 20213 ft | 363 kts | 185° |
| 2026-04-29 15:55 | 22.11775 | 39.10771 | 19789 ft | 362 kts | 185° |
| 2026-04-29 15:55 | 22.09263 | 39.11016 | 19363 ft | 366 kts | 171° |
| 2026-04-29 15:55 | 22.06835 | 39.11858 | 18945 ft | 368 kts | 163° |
| 2026-04-29 15:55 | 22.04433 | 39.12813 | 18541 ft | 367 kts | 163° |
| 2026-04-29 15:56 | 22.02043 | 39.13766 | 18171 ft | 365 kts | 163° |
| 2026-04-29 15:56 | 21.99673 | 39.14708 | 17887 ft | 360 kts | 163° |
| 2026-04-29 15:56 | 21.97331 | 39.15636 | 17878 ft | 358 kts | 163° |
| 2026-04-29 15:56 | 21.95023 | 39.16548 | 17866 ft | 357 kts | 163° |
| 2026-04-29 15:57 | 21.92690 | 39.17471 | 17583 ft | 358 kts | 163° |
| 2026-04-29 15:57 | 21.90374 | 39.18387 | 16948 ft | 352 kts | 163° |
| 2026-04-29 15:57 | 21.88099 | 39.19289 | 16335 ft | 346 kts | 163° |
| 2026-04-29 15:57 | 21.85857 | 39.20178 | 15736 ft | 341 kts | 163° |
| 2026-04-29 15:58 | 21.83649 | 39.21053 | 15131 ft | 336 kts | 163° |
| 2026-04-29 15:58 | 21.81472 | 39.21913 | 14554 ft | 331 kts | 163° |
| 2026-04-29 15:58 | 21.79327 | 39.22754 | 13964 ft | 326 kts | 163° |
| 2026-04-29 15:58 | 21.77238 | 39.23571 | 13380 ft | 321 kts | 163° |
| 2026-04-29 15:59 | 21.75152 | 39.24387 | 12744 ft | 317 kts | 163° |
| 2026-04-29 15:59 | 21.73097 | 39.25191 | 12124 ft | 312 kts | 163° |
| 2026-04-29 15:59 | 21.71074 | 39.25984 | 11516 ft | 308 kts | 163° |
| 2026-04-29 15:59 | 21.69078 | 39.26770 | 10919 ft | 303 kts | 163° |
| 2026-04-29 16:00 | 21.67114 | 39.27548 | 10327 ft | 299 kts | 163° |
| 2026-04-29 16:00 | 21.65180 | 39.28315 | 9752 ft | 294 kts | 163° |
| 2026-04-29 16:00 | 21.63275 | 39.29072 | 9123 ft | 290 kts | 163° |
| 2026-04-29 16:00 | 21.61427 | 39.29803 | 8578 ft | 283 kts | 163° |
| 2026-04-29 16:01 | 21.59617 | 39.30515 | 8164 ft | 272 kts | 163° |
| 2026-04-29 16:01 | 21.57873 | 39.31199 | 7757 ft | 262 kts | 163° |
| 2026-04-29 16:01 | 21.56195 | 39.31855 | 7354 ft | 252 kts | 164° |
| 2026-04-29 16:01 | 21.54574 | 39.32489 | 6956 ft | 244 kts | 164° |
| 2026-04-29 16:02 | 21.52996 | 39.33104 | 6562 ft | 238 kts | 163° |
| 2026-04-29 16:02 | 21.51458 | 39.33704 | 6163 ft | 232 kts | 164° |
| 2026-04-29 16:02 | 21.49961 | 39.34289 | 5750 ft | 227 kts | 165° |
| 2026-04-29 16:02 | 21.48475 | 39.34868 | 5398 ft | 228 kts | 164° |
| 2026-04-29 16:03 | 21.47001 | 39.35443 | 5060 ft | 229 kts | 162° |
| 2026-04-29 16:03 | 21.45499 | 39.36030 | 4729 ft | 230 kts | 163° |
| 2026-04-29 16:03 | 21.43984 | 39.36605 | 4389 ft | 231 kts | 168° |
| 2026-04-29 16:03 | 21.42414 | 39.36601 | 4083 ft | 225 kts | 201° |
| 2026-04-29 16:04 | 21.41193 | 39.35686 | 4027 ft | 208 kts | 237° |
| 2026-04-29 16:04 | 21.40604 | 39.34341 | 3959 ft | 196 kts | 252° |
| 2026-04-29 16:04 | 21.40182 | 39.32961 | 3740 ft | 194 kts | 254° |
| 2026-04-29 16:04 | 21.39880 | 39.31562 | 3518 ft | 191 kts | 267° |
| 2026-04-29 16:05 | 21.40029 | 39.30177 | 3303 ft | 191 kts | 287° |
| 2026-04-29 16:05 | 21.40631 | 39.28922 | 3107 ft | 189 kts | 307° |
| 2026-04-29 16:05 | 21.41601 | 39.27989 | 3026 ft | 186 kts | 327° |
| 2026-04-29 16:05 | 21.42777 | 39.27444 | 3027 ft | 184 kts | 336° |
| 2026-04-29 16:06 | 21.43974 | 39.26975 | 3024 ft | 183 kts | 336° |
| 2026-04-29 16:06 | 21.45180 | 39.26501 | 3044 ft | 188 kts | 336° |
| 2026-04-29 16:06 | 21.46414 | 39.26016 | 3033 ft | 190 kts | 337° |
| 2026-04-29 16:06 | 21.47645 | 39.25533 | 3019 ft | 185 kts | 336° |
| 2026-04-29 16:07 | 21.48846 | 39.25062 | 3031 ft | 182 kts | 336° |
| 2026-04-29 16:07 | 21.50008 | 39.24604 | 3030 ft | 181 kts | 338° |
| 2026-04-29 16:07 | 21.51196 | 39.24137 | 3019 ft | 182 kts | 337° |
| 2026-04-29 16:07 | 21.52377 | 39.23673 | 2878 ft | 177 kts | 336° |
| 2026-04-29 16:08 | 21.53504 | 39.23230 | 2683 ft | 170 kts | 338° |
| 2026-04-29 16:08 | 21.54592 | 39.22802 | 2481 ft | 161 kts | 339° |
| 2026-04-29 16:08 | 21.55606 | 39.22403 | 2281 ft | 150 kts | 339° |
| 2026-04-29 16:08 | 21.56565 | 39.22025 | 2089 ft | 142 kts | 340° |
| 2026-04-29 16:09 | 21.57462 | 39.21672 | 1918 ft | 134 kts | 340° |
| 2026-04-29 16:09 | 21.58301 | 39.21341 | 1773 ft | 125 kts | 339° |
| 2026-04-29 16:09 | 21.59104 | 39.21025 | 1619 ft | 120 kts | 340° |
| 2026-04-29 16:09 | 21.59884 | 39.20718 | 1447 ft | 119 kts | 341° |
| 2026-04-29 16:10 | 21.60656 | 39.20414 | 1292 ft | 118 kts | 341° |
| 2026-04-29 16:10 | 21.61432 | 39.20108 | 1130 ft | 119 kts | 341° |
| 2026-04-29 16:10 | 21.62207 | 39.19802 | 1042 ft | 120 kts | 339° |
| 2026-04-29 16:10 | 21.63032 | 39.19483 | 799 ft | 125 kts | 340° |
| 2026-04-29 16:11 | 21.63805 | 39.19173 | 651 ft | 123 kts | 340° |
| 2026-04-29 16:11 | 21.64592 | 39.18857 | 512 ft | 119 kts | 340° |
| 2026-04-29 16:11 | 21.65348 | 39.18565 | 280 ft | 117 kts | 339° |
| 2026-04-29 16:11 | 21.66131 | 39.18252 | 139 ft | 132 kts | 339° |
| 2026-04-29 16:12 | 21.66986 | 39.17915 | 56 ft | 128 kts | 340° |
| 2026-04-29 16:12 | 21.67505 | 39.17712 | 33 ft | 110 kts | 340° |
| 2026-04-29 16:12 | 21.68176 | 39.17448 | 28 ft | 33 kts | 339° |
| 2026-04-29 16:12 | 21.68288 | 39.17367 | 27 ft | 18 kts | 311° |
| 2026-04-29 16:13 | 21.68373 | 39.17261 | 28 ft | 20 kts | 309° |